Time,TemperatureF,DewpointF,PressureIn,WindDirection,WindDirectionDegrees,WindSpeedMPH,WindSpeedGustMPH,Humidity,HourlyPrecipIn,Conditions,Clouds,dailyrainin,SoftwareType,DateUTC
2013-06-26 00:01:00,68.9,61.7,29.96,East,90,3.4,3.7,78,0.00,,,0.00,WUHU216HW,2013-06-26 04:01:00,
2013-06-26 00:02:00,68.9,61.7,29.96,East,90,3.4,3.7,78,0.00,,,0.00,WUHU216HW,2013-06-26 04:02:00,
2013-06-26 00:07:00,68.9,61.8,29.96,East,90,0.3,3.4,78,0.00,,,0.00,WUHU216HW,2013-06-26 04:07:00,
2013-06-26 00:12:00,68.9,61.8,29.96,East,90,1.9,3.4,78,0.00,,,0.00,WUHU216HW,2013-06-26 04:12:00,
2013-06-26 00:18:00,69.1,62.0,29.96,East,90,0.0,1.9,78,0.00,,,0.00,WUHU216HW,2013-06-26 04:18:00,
2013-06-26 00:23:00,68.9,62.2,29.96,SE,135,1.2,1.9,79,0.00,,,0.00,WUHU216HW,2013-06-26 04:23:00,
2013-06-26 00:28:00,68.9,62.2,29.96,ESE,113,0.0,1.2,79,0.00,,,0.00,WUHU216HW,2013-06-26 04:28:00,
2013-06-26 00:33:00,68.7,62.1,29.96,ESE,113,0.0,1.2,79,0.00,,,0.00,WUHU216HW,2013-06-26 04:33:00,
2013-06-26 00:38:00,68.4,61.8,29.96,NNW,338,0.0,0.3,79,0.00,,,0.00,WUHU216HW,2013-06-26 04:38:00,
2013-06-26 00:43:00,68.2,61.6,29.96,ESE,113,0.0,0.3,79,0.00,,,0.00,WUHU216HW,2013-06-26 04:43:00,
2013-06-26 00:48:00,68.2,61.6,29.97,ESE,113,0.0,0.0,79,0.00,,,0.00,WUHU216HW,2013-06-26 04:48:00,
2013-06-26 00:53:00,68.0,61.5,29.96,ESE,113,0.0,0.0,79,0.00,,,0.00,WUHU216HW,2013-06-26 04:53:00,
2013-06-26 00:58:00,67.8,61.3,29.96,South,180,0.0,0.0,80,0.00,,,0.00,WUHU216HW,2013-06-26 04:58:00,
2013-06-26 01:03:00,67.5,61.7,29.96,SW,225,0.0,0.3,82,0.00,,,0.00,WUHU216HW,2013-06-26 05:03:00,
2013-06-26 01:08:00,67.3,61.5,29.97,SW,225,1.5,1.5,82,0.00,,,0.00,WUHU216HW,2013-06-26 05:08:00,
2013-06-26 01:13:00,67.1,61.7,29.97,SW,225,0.0,1.5,83,0.00,,,0.00,WUHU216HW,2013-06-26 05:13:00,
2013-06-26 01:18:00,66.9,61.5,29.96,SW,225,0.0,1.5,83,0.00,,,0.00,WUHU216HW,2013-06-26 05:18:00,
2013-06-26 01:23:00,66.8,61.8,29.96,SW,225,0.7,0.7,84,0.00,,,0.00,WUHU216HW,2013-06-26 05:23:00,
2013-06-26 01:28:00,66.6,61.6,29.96,SW,225,0.0,0.7,84,0.00,,,0.00,WUHU216HW,2013-06-26 05:28:00,
2013-06-26 01:33:00,66.6,61.6,29.96,SW,225,0.0,0.7,84,0.00,,,0.00,WUHU216HW,2013-06-26 05:33:00,
2013-06-26 01:38:00,66.4,61.4,29.96,SW,225,1.2,1.2,84,0.00,,,0.00,WUHU216HW,2013-06-26 05:38:00,
2013-06-26 01:43:00,66.4,61.4,29.97,South,180,0.7,1.2,84,0.00,,,0.00,WUHU216HW,2013-06-26 05:43:00,
2013-06-26 01:48:00,66.4,61.5,29.96,NNW,338,0.7,3.4,84,0.00,,,0.00,WUHU216HW,2013-06-26 05:48:00,
2013-06-26 01:53:00,66.2,61.6,29.96,NNW,338,0.0,3.4,85,0.00,,,0.00,WUHU216HW,2013-06-26 05:53:00,
2013-06-26 01:58:00,66.2,61.6,29.96,South,180,0.7,0.7,85,0.00,,,0.00,WUHU216HW,2013-06-26 05:58:00,
2013-06-26 02:03:00,66.4,61.8,29.96,South,180,0.0,0.7,85,0.00,,,0.00,WUHU216HW,2013-06-26 06:03:00,
2013-06-26 02:08:00,66.4,62.2,29.96,South,180,0.0,0.7,86,0.00,,,0.00,WUHU216HW,2013-06-26 06:08:00,
2013-06-26 02:13:00,66.4,62.2,29.96,South,180,0.0,0.0,86,0.00,,,0.00,WUHU216HW,2013-06-26 06:13:00,
2013-06-26 02:18:00,66.4,62.2,29.96,WSW,248,1.2,1.2,86,0.00,,,0.00,WUHU216HW,2013-06-26 06:18:00,
2013-06-26 02:23:00,66.2,62.0,29.95,WSW,248,0.0,1.2,86,0.00,,,0.00,WUHU216HW,2013-06-26 06:23:00,
2013-06-26 02:28:00,66.2,62.0,29.96,WSW,248,0.0,1.2,86,0.00,,,0.00,WUHU216HW,2013-06-26 06:28:00,
2013-06-26 02:33:00,66.2,62.0,29.96,WSW,248,0.0,0.0,86,0.00,,,0.00,WUHU216HW,2013-06-26 06:33:00,
2013-06-26 02:38:00,66.2,62.3,29.95,WSW,248,0.0,0.0,87,0.00,,,0.00,WUHU216HW,2013-06-26 06:38:00,
2013-06-26 02:43:00,66.2,62.3,29.96,WSW,248,0.0,0.0,87,0.00,,,0.00,WUHU216HW,2013-06-26 06:43:00,
2013-06-26 02:48:00,66.2,62.4,29.96,WSW,248,0.7,0.7,87,0.00,,,0.00,WUHU216HW,2013-06-26 06:48:00,
2013-06-26 02:53:00,66.2,62.7,29.96,WSW,248,0.0,0.7,88,0.00,,,0.00,WUHU216HW,2013-06-26 06:53:00,
2013-06-26 02:58:00,66.2,63.0,29.96,WSW,248,0.0,0.7,90,0.00,,,0.00,WUHU216HW,2013-06-26 06:58:00,
2013-06-26 03:03:00,66.2,63.0,29.95,WSW,248,0.0,0.0,90,0.00,,,0.00,WUHU216HW,2013-06-26 07:03:00,
2013-06-26 03:08:00,66.2,63.0,29.95,WSW,248,0.0,0.0,90,0.00,,,0.00,WUHU216HW,2013-06-26 07:08:00,
2013-06-26 03:13:00,66.2,63.0,29.95,WSW,248,0.0,0.0,90,0.00,,,0.00,WUHU216HW,2013-06-26 07:13:00,
2013-06-26 03:18:00,66.0,62.8,29.95,WSW,248,0.7,0.7,90,0.00,,,0.00,WUHU216HW,2013-06-26 07:18:00,
2013-06-26 03:23:00,66.0,62.8,29.95,WSW,248,0.0,0.7,90,0.00,,,0.00,WUHU216HW,2013-06-26 07:23:00,
2013-06-26 03:28:00,65.9,63.0,29.94,WSW,248,0.0,0.7,91,0.00,,,0.00,WUHU216HW,2013-06-26 07:28:00,
2013-06-26 03:33:00,65.9,63.0,29.95,WSW,248,0.7,0.7,91,0.00,,,0.00,WUHU216HW,2013-06-26 07:33:00,
2013-06-26 03:38:00,65.7,62.8,29.95,WSW,248,0.7,0.7,91,0.00,,,0.00,WUHU216HW,2013-06-26 07:38:00,
2013-06-26 03:43:00,65.5,62.9,29.95,SSW,203,0.0,1.5,92,0.00,,,0.00,WUHU216HW,2013-06-26 07:43:00,
2013-06-26 03:48:00,65.5,62.9,29.95,SSW,203,3.7,3.7,92,0.00,,,0.00,WUHU216HW,2013-06-26 07:48:00,
2013-06-26 03:53:00,65.3,62.4,29.95,SW,225,1.9,3.7,91,0.00,,,0.00,WUHU216HW,2013-06-26 07:53:00,
2013-06-26 03:58:00,65.7,62.8,29.96,ESE,113,3.1,3.7,91,0.00,,,0.00,WUHU216HW,2013-06-26 07:58:00,
2013-06-26 04:03:00,66.4,63.5,29.97,SSW,203,4.3,4.3,90,0.00,,,0.00,WUHU216HW,2013-06-26 08:03:00,
2013-06-26 04:08:00,66.8,63.6,29.96,SSE,158,3.1,4.3,89,0.00,,,0.00,WUHU216HW,2013-06-26 08:08:00,
2013-06-26 04:13:00,67.1,63.6,29.96,SSE,158,4.3,5.8,88,0.00,,,0.00,WUHU216HW,2013-06-26 08:13:00,
2013-06-26 04:18:00,67.3,63.4,29.96,SSE,158,1.9,5.8,87,0.00,,,0.00,WUHU216HW,2013-06-26 08:18:00,
2013-06-26 04:23:00,67.3,63.4,29.96,SE,135,3.1,4.3,87,0.00,,,0.00,WUHU216HW,2013-06-26 08:23:00,
2013-06-26 04:28:00,67.3,63.4,29.96,South,180,2.2,3.1,87,0.00,,,0.00,WUHU216HW,2013-06-26 08:28:00,
2013-06-26 04:33:00,67.1,63.2,29.96,SSW,203,2.2,3.1,87,0.00,,,0.00,WUHU216HW,2013-06-26 08:33:00,
2013-06-26 04:38:00,67.1,63.2,29.96,SW,225,1.9,3.1,87,0.00,,,0.00,WUHU216HW,2013-06-26 08:38:00,
2013-06-26 04:43:00,66.9,63.0,29.96,South,180,0.7,2.2,87,0.00,,,0.00,WUHU216HW,2013-06-26 08:43:00,
2013-06-26 04:48:00,66.8,62.9,29.97,SSE,158,0.3,1.9,87,0.00,,,0.00,WUHU216HW,2013-06-26 08:48:00,
2013-06-26 04:53:00,66.6,63.0,29.97,SSE,158,1.5,1.5,88,0.00,,,0.00,WUHU216HW,2013-06-26 08:53:00,
2013-06-26 04:58:00,66.8,63.2,29.97,South,180,4.3,4.3,88,0.00,,,0.00,WUHU216HW,2013-06-26 08:58:00,
2013-06-26 05:03:00,66.9,63.3,29.97,SSE,158,1.5,4.3,88,0.00,,,0.00,WUHU216HW,2013-06-26 09:03:00,
2013-06-26 05:08:00,67.1,63.1,29.97,South,180,3.7,4.3,87,0.00,,,0.00,WUHU216HW,2013-06-26 09:08:00,
2013-06-26 05:13:00,67.5,63.5,29.97,SSW,203,4.3,4.3,87,0.00,,,0.00,WUHU216HW,2013-06-26 09:13:00,
2013-06-26 05:18:00,67.8,63.8,29.97,ESE,113,1.2,4.3,87,0.00,,,0.00,WUHU216HW,2013-06-26 09:18:00,
2013-06-26 05:23:00,67.8,63.8,29.97,NNW,338,3.7,4.3,87,0.00,,,0.00,WUHU216HW,2013-06-26 09:23:00,
2013-06-26 05:28:00,67.5,63.5,29.96,North,0,3.1,3.7,87,0.00,,,0.00,WUHU216HW,2013-06-26 09:28:00,
2013-06-26 05:33:00,66.8,62.7,29.96,NNE,23,0.3,3.7,87,0.00,,,0.00,WUHU216HW,2013-06-26 09:33:00,
2013-06-26 05:38:00,66.4,62.7,29.96,East,90,0.0,3.1,88,0.00,,,0.00,WUHU216HW,2013-06-26 09:38:00,
2013-06-26 05:43:00,66.2,62.4,29.96,East,90,0.0,0.3,88,0.00,,,0.00,WUHU216HW,2013-06-26 09:43:00,
2013-06-26 05:48:00,66.0,62.2,29.95,East,90,0.0,0.0,88,0.00,,,0.00,WUHU216HW,2013-06-26 09:48:00,
2013-06-26 05:53:00,65.9,62.4,29.95,East,90,0.0,0.0,89,0.00,,,0.00,WUHU216HW,2013-06-26 09:53:00,
2013-06-26 05:58:00,65.3,62.1,29.96,NNE,23,1.9,1.9,90,0.00,,,0.00,WUHU216HW,2013-06-26 09:58:00,
2013-06-26 06:03:00,65.3,62.1,29.96,West,270,1.5,1.9,89,0.00,,,0.00,WUHU216HW,2013-06-26 10:03:00,
2013-06-26 06:08:00,65.1,61.9,29.95,South,180,0.7,1.9,89,0.00,,,0.00,WUHU216HW,2013-06-26 10:08:00,
2013-06-26 06:13:00,65.0,61.8,29.96,SSE,158,0.0,1.5,89,0.00,,,0.00,WUHU216HW,2013-06-26 10:13:00,
2013-06-26 06:18:00,65.3,62.3,29.95,South,180,0.7,0.7,90,0.00,,,0.00,WUHU216HW,2013-06-26 10:18:00,
2013-06-26 06:23:00,65.5,62.8,29.96,South,180,0.3,0.7,91,0.00,,,0.00,WUHU216HW,2013-06-26 10:23:00,
2013-06-26 06:28:00,66.0,63.3,29.96,SW,225,0.7,0.7,91,0.00,,,0.00,WUHU216HW,2013-06-26 10:28:00,
2013-06-26 06:33:00,66.6,63.6,29.96,SW,225,0.3,0.7,90,0.00,,,0.00,WUHU216HW,2013-06-26 10:33:00,
2013-06-26 06:38:00,66.9,63.8,29.96,South,180,0.0,0.7,90,0.00,,,0.00,WUHU216HW,2013-06-26 10:38:00,
2013-06-26 06:43:00,67.5,64.1,29.96,South,180,0.7,1.2,89,0.00,,,0.00,WUHU216HW,2013-06-26 10:43:00,
2013-06-26 06:48:00,68.0,64.6,29.96,NW,315,4.3,4.3,89,0.00,,,0.00,WUHU216HW,2013-06-26 10:48:00,
2013-06-26 06:53:00,68.0,64.2,29.96,NW,315,4.6,4.6,88,0.00,,,0.00,WUHU216HW,2013-06-26 10:53:00,
2013-06-26 06:58:00,67.5,64.0,29.96,North,0,4.3,4.6,89,0.00,,,0.00,WUHU216HW,2013-06-26 10:58:00,
2013-06-26 07:03:00,67.1,63.6,29.96,East,90,1.2,4.6,89,0.00,,,0.00,WUHU216HW,2013-06-26 11:03:00,
2013-06-26 07:08:00,67.1,63.6,29.97,SE,135,0.7,4.3,88,0.00,,,0.00,WUHU216HW,2013-06-26 11:08:00,
2013-06-26 07:13:00,67.5,64.2,29.96,East,90,0.0,1.2,89,0.00,,,0.00,WUHU216HW,2013-06-26 11:13:00,
2013-06-26 07:18:00,67.7,64.4,29.96,NNW,338,1.9,1.9,89,0.00,,,0.00,WUHU216HW,2013-06-26 11:18:00,
2013-06-26 07:23:00,67.8,64.8,29.97,NW,315,2.2,2.2,90,0.00,,,0.00,WUHU216HW,2013-06-26 11:23:00,
2013-06-26 07:28:00,67.8,64.4,29.97,NW,315,1.9,2.7,89,0.00,,,0.00,WUHU216HW,2013-06-26 11:28:00,
2013-06-26 07:33:00,68.0,64.9,29.97,NNW,338,0.7,2.7,90,0.00,,,0.00,WUHU216HW,2013-06-26 11:33:00,
2013-06-26 07:38:00,68.2,64.8,29.97,NNW,338,0.0,1.9,89,0.00,,,0.00,WUHU216HW,2013-06-26 11:38:00,
2013-06-26 07:43:00,68.6,65.1,29.97,ENE,68,0.7,1.5,89,0.00,,,0.00,WUHU216HW,2013-06-26 11:43:00,
2013-06-26 07:48:00,68.9,65.7,29.96,SSW,203,0.3,1.5,90,0.00,,,0.00,WUHU216HW,2013-06-26 11:48:00,
2013-06-26 07:53:00,69.5,66.0,29.96,NNW,338,1.5,1.5,89,0.00,,,0.00,WUHU216HW,2013-06-26 11:53:00,
2013-06-26 07:58:00,70.0,66.1,29.96,SSE,158,2.7,4.3,87,0.00,,,0.00,WUHU216HW,2013-06-26 11:58:00,
2013-06-26 08:03:00,70.7,66.4,29.96,SSE,158,3.1,4.3,86,0.00,,,0.00,WUHU216HW,2013-06-26 12:03:00,
2013-06-26 08:08:00,71.1,66.1,29.96,South,180,2.7,3.1,84,0.00,,,0.00,WUHU216HW,2013-06-26 12:08:00,
2013-06-26 08:13:00,71.8,66.8,29.96,SE,135,1.5,3.1,84,0.00,,,0.00,WUHU216HW,2013-06-26 12:13:00,
2013-06-26 08:18:00,72.0,66.6,29.96,ESE,113,0.7,2.7,83,0.00,,,0.00,WUHU216HW,2013-06-26 12:18:00,
2013-06-26 08:23:00,72.5,67.7,29.96,NNW,338,4.9,4.9,85,0.00,,,0.00,WUHU216HW,2013-06-26 12:23:00,
2013-06-26 08:28:00,72.5,67.0,29.96,NNW,338,4.3,4.9,83,0.00,,,0.00,WUHU216HW,2013-06-26 12:28:00,
2013-06-26 08:33:00,72.9,67.4,29.96,NW,315,5.3,5.3,83,0.00,,,0.00,WUHU216HW,2013-06-26 12:33:00,
2013-06-26 08:38:00,72.9,67.7,29.96,NNW,338,6.5,6.8,84,0.00,,,0.00,WUHU216HW,2013-06-26 12:38:00,
2013-06-26 08:43:00,73.2,67.9,29.95,North,0,8.3,8.3,83,0.00,,,0.00,WUHU216HW,2013-06-26 12:43:00,
2013-06-26 08:48:00,73.6,68.3,29.95,NNW,338,8.0,8.3,83,0.00,,,0.00,WUHU216HW,2013-06-26 12:48:00,
2013-06-26 08:53:00,73.6,68.2,29.95,NW,315,7.7,8.3,83,0.00,,,0.00,WUHU216HW,2013-06-26 12:53:00,
2013-06-26 08:58:00,73.8,68.1,29.95,NW,315,1.2,8.0,82,0.00,,,0.00,WUHU216HW,2013-06-26 12:58:00,
2013-06-26 09:03:00,74.1,68.0,29.95,ENE,68,3.1,7.7,81,0.00,,,0.00,WUHU216HW,2013-06-26 13:03:00,
2013-06-26 09:08:00,74.3,68.1,29.95,NNW,338,3.7,4.6,81,0.00,,,0.00,WUHU216HW,2013-06-26 13:08:00,
2013-06-26 09:13:00,74.3,68.1,29.95,NNW,338,4.3,4.6,81,0.00,,,0.00,WUHU216HW,2013-06-26 13:13:00,
2013-06-26 09:18:00,74.7,68.8,29.95,WNW,293,6.8,8.3,82,0.00,,,0.00,WUHU216HW,2013-06-26 13:18:00,
2013-06-26 09:24:00,74.9,68.9,29.95,East,90,3.1,8.3,82,0.00,,,0.00,WUHU216HW,2013-06-26 13:24:00,
2013-06-26 09:29:00,75.2,68.8,29.95,East,90,1.9,6.8,80,0.00,,,0.00,WUHU216HW,2013-06-26 13:29:00,
2013-06-26 09:34:00,75.4,69.0,29.95,NNW,338,2.7,4.3,80,0.00,,,0.00,WUHU216HW,2013-06-26 13:34:00,
2013-06-26 09:39:00,75.4,68.6,29.95,WNW,293,1.9,4.3,79,0.00,,,0.00,WUHU216HW,2013-06-26 13:39:00,
2013-06-26 09:44:00,75.6,68.7,29.95,NW,315,0.7,3.1,79,0.00,,,0.00,WUHU216HW,2013-06-26 13:44:00,
2013-06-26 09:49:00,75.8,68.5,29.95,NE,45,3.1,3.1,78,0.00,,,0.00,WUHU216HW,2013-06-26 13:49:00,
2013-06-26 09:54:00,76.1,68.4,29.95,NE,45,1.9,3.1,77,0.00,,,0.00,WUHU216HW,2013-06-26 13:54:00,
2013-06-26 09:59:00,76.3,68.9,29.95,NNE,23,7.3,8.0,78,0.00,,,0.00,WUHU216HW,2013-06-26 13:59:00,
2013-06-26 10:04:00,76.8,69.3,29.95,West,270,1.9,8.0,77,0.00,,,0.00,WUHU216HW,2013-06-26 14:04:00,
2013-06-26 10:09:00,76.8,68.9,29.95,NNW,338,9.2,9.2,76,0.00,,,0.00,WUHU216HW,2013-06-26 14:09:00,
2013-06-26 10:14:00,77.2,69.3,29.94,NNW,338,2.7,9.2,76,0.00,,,0.00,WUHU216HW,2013-06-26 14:14:00,
2013-06-26 10:19:00,77.6,69.6,29.94,NNE,23,5.3,9.2,76,0.00,,,0.00,WUHU216HW,2013-06-26 14:19:00,
2013-06-26 10:24:00,77.6,69.2,29.95,NNE,23,2.2,5.3,75,0.00,,,0.00,WUHU216HW,2013-06-26 14:24:00,
2013-06-26 10:29:00,77.7,69.6,29.94,North,0,3.1,5.8,76,0.00,,,0.00,WUHU216HW,2013-06-26 14:29:00,
2013-06-26 10:34:00,78.1,69.6,29.94,NE,45,7.3,7.3,75,0.00,,,0.00,WUHU216HW,2013-06-26 14:34:00,
2013-06-26 10:39:00,78.5,69.9,29.93,NNE,23,3.1,7.3,75,0.00,,,0.00,WUHU216HW,2013-06-26 14:39:00,
2013-06-26 10:44:00,78.6,70.0,29.93,North,0,2.2,7.3,74,0.00,,,0.00,WUHU216HW,2013-06-26 14:44:00,
2013-06-26 10:49:00,78.8,70.1,29.93,NW,315,5.8,8.3,74,0.00,,,0.00,WUHU216HW,2013-06-26 14:49:00,
2013-06-26 10:54:00,79.0,70.2,29.93,North,0,1.9,8.3,74,0.00,,,0.00,WUHU216HW,2013-06-26 14:54:00,
2013-06-26 10:59:00,79.0,70.2,29.93,NW,315,4.6,5.8,74,0.00,,,0.00,WUHU216HW,2013-06-26 14:59:00,
2013-06-26 11:04:00,79.5,70.7,29.93,SSW,203,1.9,4.6,74,0.00,,,0.00,WUHU216HW,2013-06-26 15:04:00,
2013-06-26 11:09:00,79.7,70.9,29.93,NNW,338,6.1,6.1,74,0.00,,,0.00,WUHU216HW,2013-06-26 15:09:00,
2013-06-26 11:14:00,79.4,70.2,29.93,NW,315,6.8,6.8,73,0.00,,,0.00,WUHU216HW,2013-06-26 15:14:00,
2013-06-26 11:19:00,79.2,70.4,29.93,East,90,2.7,6.8,74,0.00,,,0.00,WUHU216HW,2013-06-26 15:19:00,
2013-06-26 11:24:00,79.0,70.2,29.93,NNW,338,3.4,6.8,74,0.00,,,0.00,WUHU216HW,2013-06-26 15:24:00,
2013-06-26 11:29:00,78.8,70.0,29.93,NW,315,0.7,3.4,74,0.00,,,0.00,WUHU216HW,2013-06-26 15:29:00,
2013-06-26 11:34:00,79.0,70.6,29.93,ENE,68,5.8,5.8,75,0.00,,,0.00,WUHU216HW,2013-06-26 15:34:00,
2013-06-26 11:39:00,79.4,71.0,29.93,NNW,338,6.8,6.8,75,0.00,,,0.00,WUHU216HW,2013-06-26 15:39:00,
2013-06-26 11:44:00,79.7,71.2,29.93,NE,45,4.3,6.8,75,0.00,,,0.00,WUHU216HW,2013-06-26 15:44:00,
2013-06-26 11:49:00,80.1,72.0,29.93,NNW,338,5.8,6.8,76,0.00,,,0.00,WUHU216HW,2013-06-26 15:49:00,
2013-06-26 11:54:00,80.8,72.7,29.93,East,90,0.7,5.8,76,0.00,,,0.00,WUHU216HW,2013-06-26 15:54:00,
2013-06-26 11:59:00,81.0,72.5,29.93,ENE,68,3.7,5.8,75,0.00,,,0.00,WUHU216HW,2013-06-26 15:59:00,
2013-06-26 12:04:00,81.0,72.5,29.94,East,90,3.1,3.7,75,0.00,,,0.00,WUHU216HW,2013-06-26 16:04:00,
2013-06-26 12:09:00,81.0,72.5,29.94,NE,45,6.8,6.8,75,0.00,,,0.00,WUHU216HW,2013-06-26 16:09:00,
2013-06-26 12:14:00,81.0,72.5,29.94,NE,45,1.9,6.8,75,0.00,,,0.00,WUHU216HW,2013-06-26 16:14:00,
2013-06-26 12:19:00,81.2,72.7,29.94,WSW,248,1.9,6.8,75,0.00,,,0.00,WUHU216HW,2013-06-26 16:19:00,
2013-06-26 12:24:00,81.5,73.0,29.94,ESE,113,4.6,4.6,75,0.00,,,0.00,WUHU216HW,2013-06-26 16:24:00,
2013-06-26 12:29:00,82.1,73.6,29.93,SSE,158,2.7,4.6,75,0.00,,,0.00,WUHU216HW,2013-06-26 16:29:00,
2013-06-26 12:34:00,82.2,73.3,29.94,ENE,68,3.7,4.6,74,0.00,,,0.00,WUHU216HW,2013-06-26 16:34:00,
2013-06-26 12:39:00,82.4,73.5,29.93,NNW,338,7.3,7.3,74,0.00,,,0.00,WUHU216HW,2013-06-26 16:39:00,
2013-06-26 12:44:00,82.6,73.7,29.93,NNW,338,0.7,7.3,74,0.00,,,0.00,WUHU216HW,2013-06-26 16:44:00,
2013-06-26 12:49:00,82.6,73.7,29.93,NE,45,1.9,7.3,74,0.00,,,0.00,WUHU216HW,2013-06-26 16:49:00,
2013-06-26 12:54:00,82.6,73.3,29.93,NNE,23,4.3,4.3,73,0.00,,,0.00,WUHU216HW,2013-06-26 16:54:00,
2013-06-26 12:59:00,82.2,73.3,29.93,ENE,68,1.2,4.3,74,0.00,,,0.00,WUHU216HW,2013-06-26 16:59:00,
2013-06-26 13:04:00,82.4,71.9,29.93,East,90,5.8,5.8,70,0.00,,,0.00,WUHU216HW,2013-06-26 17:04:00,
2013-06-26 13:09:00,82.8,71.8,29.93,NNE,23,6.8,6.8,69,0.00,,,0.00,WUHU216HW,2013-06-26 17:09:00,
2013-06-26 13:14:00,83.0,71.6,29.93,ESE,113,3.7,6.8,68,0.00,,,0.00,WUHU216HW,2013-06-26 17:14:00,
2013-06-26 13:19:00,83.0,70.3,29.92,NE,45,5.8,9.2,65,0.00,,,0.00,WUHU216HW,2013-06-26 17:19:00,
2013-06-26 13:24:00,83.0,70.3,29.92,SE,135,3.1,9.2,65,0.00,,,0.00,WUHU216HW,2013-06-26 17:24:00,
2013-06-26 13:29:00,83.1,70.4,29.92,NE,45,4.3,5.8,65,0.00,,,0.00,WUHU216HW,2013-06-26 17:29:00,
2013-06-26 13:34:00,83.5,70.8,29.92,ENE,68,7.3,7.7,65,0.00,,,0.00,WUHU216HW,2013-06-26 17:34:00,
2013-06-26 13:39:00,83.9,71.6,29.92,WNW,293,2.7,7.7,66,0.00,,,0.00,WUHU216HW,2013-06-26 17:39:00,
2013-06-26 13:44:00,84.0,71.2,29.92,SW,225,1.5,7.3,65,0.00,,,0.00,WUHU216HW,2013-06-26 17:44:00,
2013-06-26 13:49:00,84.2,71.9,29.92,NE,45,1.2,2.7,66,0.00,,,0.00,WUHU216HW,2013-06-26 17:49:00,
2013-06-26 13:54:00,84.2,71.0,29.92,ESE,113,4.6,6.1,64,0.00,,,0.00,WUHU216HW,2013-06-26 17:54:00,
2013-06-26 13:59:00,84.4,70.7,29.91,North,0,4.3,6.1,63,0.00,,,0.00,WUHU216HW,2013-06-26 17:59:00,
2013-06-26 14:04:00,84.4,71.2,29.92,SW,225,2.7,4.6,64,0.00,,,0.00,WUHU216HW,2013-06-26 18:04:00,
2013-06-26 14:09:00,84.4,69.7,29.92,SW,225,4.3,8.0,61,0.00,,,0.00,WUHU216HW,2013-06-26 18:09:00,
2013-06-26 14:14:00,84.4,69.7,29.92,SSW,203,4.3,8.0,61,0.00,,,0.00,WUHU216HW,2013-06-26 18:14:00,
2013-06-26 14:19:00,84.4,69.7,29.92,West,270,3.1,4.3,61,0.00,,,0.00,WUHU216HW,2013-06-26 18:19:00,
2013-06-26 14:24:00,84.4,70.2,29.91,South,180,2.2,6.5,62,0.00,,,0.00,WUHU216HW,2013-06-26 18:24:00,
2013-06-26 14:29:00,84.6,70.4,29.91,SW,225,5.3,6.5,62,0.00,,,0.00,WUHU216HW,2013-06-26 18:29:00,
2013-06-26 14:34:00,84.4,70.2,29.91,SW,225,6.5,6.5,62,0.00,,,0.00,WUHU216HW,2013-06-26 18:34:00,
2013-06-26 14:39:00,84.4,70.2,29.91,East,90,3.7,6.5,62,0.00,,,0.00,WUHU216HW,2013-06-26 18:39:00,
2013-06-26 14:44:00,84.4,70.7,29.91,WSW,248,3.7,6.5,63,0.00,,,0.00,WUHU216HW,2013-06-26 18:44:00,
2013-06-26 14:49:00,84.6,70.9,29.91,South,180,1.9,3.7,63,0.00,,,0.00,WUHU216HW,2013-06-26 18:49:00,
2013-06-26 14:54:00,84.4,69.7,29.91,ESE,113,3.1,6.5,61,0.00,,,0.00,WUHU216HW,2013-06-26 18:54:00,
2013-06-26 14:59:00,84.6,70.9,29.91,South,180,4.3,6.5,63,0.00,,,0.00,WUHU216HW,2013-06-26 18:59:00,
2013-06-26 15:04:00,84.2,70.0,29.91,South,180,0.7,4.3,62,0.00,,,0.00,WUHU216HW,2013-06-26 19:04:00,
2013-06-26 15:09:00,84.0,70.3,29.91,NW,315,6.8,6.8,63,0.00,,,0.00,WUHU216HW,2013-06-26 19:09:00,
2013-06-26 15:15:00,83.7,70.0,29.90,South,180,1.9,6.8,63,0.00,,,0.00,WUHU216HW,2013-06-26 19:15:00,
2013-06-26 15:20:00,83.3,70.1,29.90,WSW,248,0.7,6.8,64,0.00,,,0.00,WUHU216HW,2013-06-26 19:20:00,
2013-06-26 15:25:00,83.0,69.8,29.90,East,90,2.7,2.7,64,0.00,,,0.00,WUHU216HW,2013-06-26 19:25:00,
2013-06-26 15:30:00,82.6,69.0,29.90,SE,135,2.2,2.7,63,0.00,,,0.00,WUHU216HW,2013-06-26 19:30:00,
2013-06-26 15:35:00,82.6,69.4,29.90,SSE,158,0.7,2.7,64,0.00,,,0.00,WUHU216HW,2013-06-26 19:35:00,
2013-06-26 15:40:00,82.4,69.3,29.90,SSE,158,3.1,3.1,64,0.00,,,0.00,WUHU216HW,2013-06-26 19:40:00,
2013-06-26 15:45:00,81.9,69.2,29.90,SSE,158,3.1,3.1,65,0.00,,,0.00,WUHU216HW,2013-06-26 19:45:00,
2013-06-26 15:50:00,81.7,69.5,29.90,SE,135,0.0,3.1,66,0.00,,,0.00,WUHU216HW,2013-06-26 19:50:00,
2013-06-26 15:55:00,81.2,69.4,29.90,SSE,158,1.9,3.1,67,0.00,,,0.00,WUHU216HW,2013-06-26 19:55:00,
2013-06-26 16:00:00,80.1,69.2,29.90,NNE,23,4.3,4.3,69,0.00,,,0.00,WUHU216HW,2013-06-26 20:00:00,
2013-06-26 16:05:00,79.5,69.1,29.90,SE,135,3.1,4.3,70,0.00,,,0.00,WUHU216HW,2013-06-26 20:05:00,
2013-06-26 16:10:00,79.2,69.2,29.90,ESE,113,1.2,4.3,71,0.00,,,0.00,WUHU216HW,2013-06-26 20:10:00,
2013-06-26 16:15:00,78.8,69.2,29.90,SSE,158,1.9,3.1,72,0.00,,,0.00,WUHU216HW,2013-06-26 20:15:00,
2013-06-26 16:20:00,78.8,69.6,29.90,South,180,1.5,1.9,73,0.00,,,0.00,WUHU216HW,2013-06-26 20:20:00,
2013-06-26 16:25:00,78.8,70.0,29.90,SSE,158,2.2,2.2,74,0.00,,,0.00,WUHU216HW,2013-06-26 20:25:00,
2013-06-26 16:30:00,78.8,69.6,29.90,South,180,2.2,2.2,73,0.00,,,0.00,WUHU216HW,2013-06-26 20:30:00,
2013-06-26 16:35:00,78.6,69.8,29.90,SE,135,3.1,3.7,74,0.00,,,0.00,WUHU216HW,2013-06-26 20:35:00,
2013-06-26 16:40:00,78.5,70.5,29.90,ENE,68,2.2,4.9,76,0.00,,,0.00,WUHU216HW,2013-06-26 20:40:00,
2013-06-26 16:45:00,78.3,70.6,29.90,NNW,338,2.7,4.9,77,0.00,,,0.00,WUHU216HW,2013-06-26 20:45:00,
2013-06-26 16:50:00,77.9,70.3,29.90,SE,135,1.2,3.4,77,0.00,,,0.00,WUHU216HW,2013-06-26 20:50:00,
2013-06-26 16:55:00,78.1,70.1,29.90,SSE,158,3.7,3.7,76,0.00,,,0.00,WUHU216HW,2013-06-26 20:55:00,
2013-06-26 17:00:00,78.3,69.9,29.90,NE,45,3.4,3.7,75,0.00,,,0.00,WUHU216HW,2013-06-26 21:00:00,
2013-06-26 17:05:00,78.3,69.9,29.89,NNW,338,1.5,3.7,75,0.00,,,0.00,WUHU216HW,2013-06-26 21:05:00,
2013-06-26 17:10:00,78.3,70.3,29.89,North,0,2.2,3.4,76,0.00,,,0.00,WUHU216HW,2013-06-26 21:10:00,
2013-06-26 17:15:00,78.3,70.3,29.89,NNW,338,1.2,2.2,76,0.00,,,0.00,WUHU216HW,2013-06-26 21:15:00,
2013-06-26 17:20:00,78.3,69.9,29.90,North,0,0.7,2.2,75,0.00,,,0.00,WUHU216HW,2013-06-26 21:20:00,
2013-06-26 17:25:00,77.9,69.5,29.90,NW,315,3.7,3.7,75,0.00,,,0.00,WUHU216HW,2013-06-26 21:25:00,
2013-06-26 17:30:00,77.9,69.9,29.90,ENE,68,0.7,3.7,76,0.00,,,0.00,WUHU216HW,2013-06-26 21:30:00,
2013-06-26 17:35:00,77.6,70.0,29.90,NE,45,3.1,3.7,77,0.00,,,0.00,WUHU216HW,2013-06-26 21:35:00,
2013-06-26 17:40:00,76.8,68.8,29.90,WSW,248,1.9,7.3,76,0.00,,,0.00,WUHU216HW,2013-06-26 21:40:00,
2013-06-26 17:45:00,76.1,67.8,29.90,NW,315,1.5,16.0,75,0.00,,,0.00,WUHU216HW,2013-06-26 21:45:00,
2013-06-26 17:50:00,75.9,67.9,29.90,ENE,68,1.2,16.0,76,0.00,,,0.00,WUHU216HW,2013-06-26 21:50:00,
2013-06-26 17:55:00,75.6,68.0,29.90,NE,45,1.5,3.1,77,0.01,,,0.01,WUHU216HW,2013-06-26 21:55:00,
2013-06-26 18:00:00,74.1,67.3,29.90,NE,45,0.3,5.3,79,0.03,,,0.03,WUHU216HW,2013-06-26 22:00:00,
2013-06-26 18:05:00,73.4,67.3,29.89,ESE,113,2.7,5.3,81,0.05,,,0.05,WUHU216HW,2013-06-26 22:05:00,
2013-06-26 18:10:00,73.2,67.1,29.89,SE,135,1.9,2.7,81,0.05,,,0.05,WUHU216HW,2013-06-26 22:10:00,
2013-06-26 18:15:00,73.2,67.8,29.89,North,0,1.5,2.7,83,0.05,,,0.05,WUHU216HW,2013-06-26 22:15:00,
2013-06-26 18:20:00,73.2,67.4,29.89,East,90,0.7,1.9,82,0.05,,,0.05,WUHU216HW,2013-06-26 22:20:00,
2013-06-26 18:25:00,73.1,67.7,29.89,NW,315,0.7,1.5,83,0.05,,,0.05,WUHU216HW,2013-06-26 22:25:00,
2013-06-26 18:30:00,73.2,67.8,29.88,NE,45,0.0,0.7,83,0.05,,,0.05,WUHU216HW,2013-06-26 22:30:00,
2013-06-26 18:35:00,73.1,68.0,29.89,NW,315,0.7,0.7,84,0.05,,,0.05,WUHU216HW,2013-06-26 22:35:00,
2013-06-26 18:40:00,73.1,68.0,29.88,NNE,23,1.9,5.8,84,0.05,,,0.05,WUHU216HW,2013-06-26 22:40:00,
2013-06-26 18:45:00,73.1,68.0,29.88,NNE,23,1.5,5.8,84,0.05,,,0.05,WUHU216HW,2013-06-26 22:45:00,
2013-06-26 18:50:00,73.2,68.1,29.88,NE,45,4.3,4.3,84,0.05,,,0.05,WUHU216HW,2013-06-26 22:50:00,
2013-06-26 18:55:00,73.2,68.1,29.88,ENE,68,5.8,5.8,84,0.04,,,0.05,WUHU216HW,2013-06-26 22:55:00,
2013-06-26 19:00:00,73.4,68.0,29.88,NW,315,0.7,5.8,83,0.02,,,0.05,WUHU216HW,2013-06-26 23:00:00,
2013-06-26 19:05:00,73.6,67.5,29.88,NNE,23,1.9,5.8,81,0.00,,,0.05,WUHU216HW,2013-06-26 23:05:00,
2013-06-26 19:10:00,74.0,67.9,29.89,West,270,3.1,3.7,81,0.00,,,0.05,WUHU216HW,2013-06-26 23:10:00,
2013-06-26 19:15:00,73.8,67.7,29.89,NW,315,4.3,4.3,81,0.00,,,0.05,WUHU216HW,2013-06-26 23:15:00,
2013-06-26 19:20:00,73.6,67.8,29.89,NNW,338,2.7,4.3,82,0.00,,,0.05,WUHU216HW,2013-06-26 23:20:00,
2013-06-26 19:25:00,73.6,68.2,29.89,East,90,2.2,4.3,83,0.00,,,0.05,WUHU216HW,2013-06-26 23:25:00,
2013-06-26 19:31:00,73.4,68.3,29.89,East,90,0.0,3.4,84,0.00,,,0.05,WUHU216HW,2013-06-26 23:31:00,
2013-06-26 19:36:00,73.2,68.1,29.89,ESE,113,0.0,3.4,84,0.00,,,0.05,WUHU216HW,2013-06-26 23:36:00,
2013-06-26 19:41:00,72.9,67.8,29.89,ESE,113,0.7,0.7,84,0.00,,,0.05,WUHU216HW,2013-06-26 23:41:00,
2013-06-26 19:46:00,72.5,67.4,29.89,SSE,158,0.3,0.7,84,0.00,,,0.05,WUHU216HW,2013-06-26 23:46:00,
2013-06-26 19:51:00,72.5,67.4,29.88,SSE,158,0.0,0.7,84,0.00,,,0.05,WUHU216HW,2013-06-26 23:51:00,
2013-06-26 19:56:00,72.3,67.6,29.89,ENE,68,0.7,0.7,85,0.00,,,0.05,WUHU216HW,2013-06-26 23:56:00,
2013-06-26 20:01:00,71.8,67.4,29.89,SSE,158,0.7,0.7,86,0.00,,,0.05,WUHU216HW,2013-06-27 00:01:00,
2013-06-26 20:06:00,71.8,67.5,29.88,SSE,158,0.7,0.7,86,0.00,,,0.05,WUHU216HW,2013-06-27 00:06:00,
2013-06-26 20:11:00,71.6,67.3,29.88,East,90,1.9,1.9,86,0.00,,,0.05,WUHU216HW,2013-06-27 00:11:00,
2013-06-26 20:16:00,71.4,67.1,29.88,NE,45,0.3,1.9,86,0.00,,,0.05,WUHU216HW,2013-06-27 00:16:00,
2013-06-26 20:21:00,71.3,67.4,29.88,ESE,113,0.0,1.9,88,0.00,,,0.05,WUHU216HW,2013-06-27 00:21:00,
2013-06-26 20:26:00,71.1,67.3,29.88,East,90,0.0,0.7,88,0.00,,,0.05,WUHU216HW,2013-06-27 00:26:00,
2013-06-26 20:31:00,71.1,67.3,29.88,East,90,0.0,0.7,88,0.00,,,0.05,WUHU216HW,2013-06-27 00:31:00,
2013-06-26 20:36:00,70.9,67.5,29.88,East,90,0.0,0.0,89,0.00,,,0.05,WUHU216HW,2013-06-27 00:36:00,
2013-06-26 20:41:00,70.7,67.0,29.89,SSE,158,1.2,1.5,88,0.00,,,0.05,WUHU216HW,2013-06-27 00:41:00,
2013-06-26 20:46:00,70.5,66.8,29.89,SE,135,0.0,1.5,88,0.00,,,0.05,WUHU216HW,2013-06-27 00:46:00,
2013-06-26 20:51:00,70.5,66.9,29.89,SE,135,0.0,1.2,88,0.00,,,0.05,WUHU216HW,2013-06-27 00:51:00,
2013-06-26 20:56:00,70.4,66.8,29.89,SE,135,0.0,0.0,89,0.00,,,0.05,WUHU216HW,2013-06-27 00:56:00,
2013-06-26 21:01:00,70.2,66.7,29.89,East,90,0.0,0.0,89,0.00,,,0.05,WUHU216HW,2013-06-27 01:01:00,
2013-06-26 21:06:00,70.0,66.5,29.89,ESE,113,0.3,1.2,89,0.00,,,0.05,WUHU216HW,2013-06-27 01:06:00,
2013-06-26 21:11:00,69.8,66.7,29.89,ESE,113,0.0,1.2,90,0.00,,,0.05,WUHU216HW,2013-06-27 01:11:00,
2013-06-26 21:16:00,69.8,66.7,29.89,ESE,113,0.0,0.3,90,0.00,,,0.05,WUHU216HW,2013-06-27 01:16:00,
2013-06-26 21:21:00,69.6,66.6,29.89,ESE,113,0.7,0.7,90,0.00,,,0.05,WUHU216HW,2013-06-27 01:21:00,
2013-06-26 21:26:00,69.8,66.8,29.90,East,90,0.0,0.7,90,0.00,,,0.05,WUHU216HW,2013-06-27 01:26:00,
2013-06-26 21:31:00,69.6,66.9,29.90,East,90,0.0,0.7,91,0.00,,,0.05,WUHU216HW,2013-06-27 01:31:00,
2013-06-26 21:36:00,69.5,66.9,29.90,NNW,338,0.7,0.7,92,0.00,,,0.05,WUHU216HW,2013-06-27 01:36:00,
2013-06-26 21:41:00,69.3,66.7,29.90,East,90,1.2,1.2,92,0.00,,,0.05,WUHU216HW,2013-06-27 01:41:00,
2013-06-26 21:46:00,69.3,66.8,29.90,East,90,0.0,1.2,92,0.00,,,0.05,WUHU216HW,2013-06-27 01:46:00,
2013-06-26 21:51:00,69.3,66.8,29.89,East,90,0.0,1.2,92,0.00,,,0.05,WUHU216HW,2013-06-27 01:51:00,
2013-06-26 21:56:00,69.1,66.6,29.89,East,90,0.0,0.7,92,0.00,,,0.05,WUHU216HW,2013-06-27 01:56:00,
2013-06-26 22:01:00,69.1,67.0,29.89,ESE,113,0.3,0.7,93,0.00,,,0.05,WUHU216HW,2013-06-27 02:01:00,
2013-06-26 22:06:00,69.3,67.2,29.89,NE,45,0.0,0.3,93,0.00,,,0.05,WUHU216HW,2013-06-27 02:06:00,
2013-06-26 22:11:00,69.3,67.3,29.89,SSW,203,1.5,1.5,93,0.00,,,0.05,WUHU216HW,2013-06-27 02:11:00,
2013-06-26 22:16:00,69.1,67.1,29.89,SW,225,0.0,1.5,93,0.00,,,0.05,WUHU216HW,2013-06-27 02:16:00,
2013-06-26 22:21:00,69.1,67.1,29.89,SW,225,0.0,1.5,94,0.00,,,0.05,WUHU216HW,2013-06-27 02:21:00,
2013-06-26 22:26:00,68.9,67.0,29.89,SW,225,0.0,0.0,94,0.00,,,0.05,WUHU216HW,2013-06-27 02:26:00,
2013-06-26 22:31:00,68.9,67.3,29.89,South,180,0.0,0.0,95,0.00,,,0.05,WUHU216HW,2013-06-27 02:31:00,
2013-06-26 22:36:00,68.9,67.3,29.90,South,180,0.0,0.0,95,0.00,,,0.05,WUHU216HW,2013-06-27 02:36:00,
2013-06-26 22:41:00,68.9,67.4,29.90,South,180,0.0,0.0,95,0.00,,,0.05,WUHU216HW,2013-06-27 02:41:00,
2013-06-26 22:46:00,68.9,67.4,29.89,South,180,0.0,0.0,95,0.00,,,0.05,WUHU216HW,2013-06-27 02:46:00,
2013-06-26 22:51:00,68.7,67.2,29.89,South,180,0.0,0.0,95,0.00,,,0.05,WUHU216HW,2013-06-27 02:51:00,
2013-06-26 22:56:00,68.9,67.5,29.89,South,180,0.0,0.0,95,0.00,,,0.05,WUHU216HW,2013-06-27 02:56:00,
2013-06-26 23:01:00,68.7,67.3,29.89,South,180,0.0,0.0,95,0.00,,,0.05,WUHU216HW,2013-06-27 03:01:00,
2013-06-26 23:06:00,68.7,67.3,29.89,South,180,0.0,0.0,96,0.00,,,0.05,WUHU216HW,2013-06-27 03:06:00,
2013-06-26 23:11:00,68.6,67.3,29.89,South,180,0.0,0.0,96,0.00,,,0.05,WUHU216HW,2013-06-27 03:11:00,
2013-06-26 23:16:00,68.6,67.3,29.89,South,180,0.0,0.0,96,0.00,,,0.05,WUHU216HW,2013-06-27 03:16:00,
2013-06-26 23:21:00,68.6,67.3,29.89,South,180,0.0,0.0,96,0.00,,,0.05,WUHU216HW,2013-06-27 03:21:00,
2013-06-26 23:26:00,68.4,67.5,29.89,NNW,338,3.1,3.1,97,0.00,,,0.05,WUHU216HW,2013-06-27 03:26:00,
2013-06-26 23:31:00,67.8,66.9,29.89,NW,315,1.5,3.1,97,0.00,,,0.05,WUHU216HW,2013-06-27 03:31:00,
2013-06-26 23:36:00,67.7,66.8,29.88,NNE,23,0.0,3.1,97,0.00,,,0.05,WUHU216HW,2013-06-27 03:36:00,
2013-06-26 23:41:00,67.7,66.9,29.88,ESE,113,0.7,1.5,97,0.00,,,0.05,WUHU216HW,2013-06-27 03:41:00,
2013-06-26 23:46:00,67.7,66.9,29.88,SE,135,0.7,0.7,97,0.00,,,0.05,WUHU216HW,2013-06-27 03:46:00,
2013-06-26 23:51:00,67.7,67.2,29.88,ENE,68,1.9,1.9,98,0.00,,,0.05,WUHU216HW,2013-06-27 03:51:00,
2013-06-26 23:56:00,67.8,67.3,29.88,SSE,158,1.2,1.9,99,0.00,,,0.05,WUHU216HW,2013-06-27 03:56:00,